Catàleg de serveis del Meteocat
Campanya meteocatpedra

Dades de l'estació automàtica la Granadella

?
?
Resum diari 22:30 TU
Dades diàries de l'estació meteorològica
Temperatura mitjana 7.5 °C
Temperatura màxima 11.4 °C 15:48 TU
Temperatura mínima 4.8 °C 21:33 TU
Humitat relativa mitjana 83%
Precipitació acumulada 8.6 mm
Ratxa màxima del vent (2 m) 23.8 km/h - 323º 19:19 TU
Irradiació solar global 3.7 MJ/m2

El tram horari està expressat en Temps Universal (TU). Cal sumar una hora en horari d'hivern i dues en horari d'estiu per passar a l'hora oficial.

la Granadella

Metadades estació meteorol´gica
Municipi La Granadella
Comarca Garrigues
Altitud 505 m
Data alta 30.01.1992
Estat actual Operativa
Dades de període
Període
TU
TM
°C
TX
°C
TN
°C
HRM
%
PPT
mm
VVM (2 m)
km/h
DVM (2 m)
graus
VVX (2 m)
km/h
RS
W/m2
00:00 - 00:30 7.2 7.3 7.0 76 0.0 4.0 273 13.3 0
00:30 - 01:00 7.1 7.2 6.9 77 0.0 3.6 270 11.9 0
01:00 - 01:30 6.8 7.0 6.5 79 0.0 1.8 316 5.0 0
01:30 - 02:00 6.2 6.7 5.9 82 0.0 1.8 112 4.3 0
02:00 - 02:30 5.6 6.0 5.2 86 0.0 1.4 120 4.0 0
02:30 - 03:00 5.3 5.4 5.0 88 0.0 2.2 125 5.0 0
03:00 - 03:30 5.2 5.5 5.0 89 0.0 2.9 129 5.8 0
03:30 - 04:00 5.8 6.1 5.5 88 0.0 2.9 127 5.4 0
04:00 - 04:30 6.2 6.4 6.1 88 0.0 3.2 134 5.4 0
04:30 - 05:00 6.6 7.4 6.4 86 0.0 2.5 155 6.5 0
05:00 - 05:30 7.3 7.4 7.1 83 0.2 4.0 207 9.4 0
05:30 - 06:00 6.9 7.1 6.6 89 0.5 0.7 150 4.0 0
06:00 - 06:30 6.4 6.6 6.3 94 0.3 2.5 132 4.7 0
06:30 - 07:00 6.3 6.3 6.3 96 0.5 2.2 133 4.0 1
07:00 - 07:30 6.4 6.6 6.3 97 1.6 0.4 97 2.9 4
07:30 - 08:00 6.6 6.6 6.6 97 1.2 0.0 330 2.2 10
08:00 - 08:30 6.7 6.8 6.6 97 1.1 3.6 340 9.7 36
08:30 - 09:00 6.6 6.7 6.5 98 1.0 4.7 316 9.7 20
09:00 - 09:30 6.4 6.5 6.4 98 1.6 6.8 309 11.9 26
09:30 - 10:00 6.5 6.6 6.4 98 0.5 2.9 309 10.1 43
10:00 - 10:30 6.7 6.9 6.6 98 0.1 2.9 342 7.2 58
10:30 - 11:00 6.9 6.9 6.8 98 0.0 5.8 299 16.9 57
11:00 - 11:30 7.0 7.2 6.8 98 0.0 7.6 297 15.5 112
11:30 - 12:00 7.4 7.5 7.2 97 0.0 9.0 295 17.6 133
12:00 - 12:30 7.7 7.8 7.5 94 0.0 7.6 304 19.8 126
12:30 - 13:00 7.9 8.1 7.8 93 0.0 6.8 303 13.7 125
13:00 - 13:30 8.5 9.2 8.1 91 0.0 5.0 277 11.2 220
13:30 - 14:00 9.4 9.8 8.9 87 0.0 6.8 281 17.3 318
14:00 - 14:30 10.2 10.6 9.7 84 0.0 5.8 246 12.6 284
14:30 - 15:00 10.2 10.4 9.9 87 0.0 7.2 206 13.7 182
15:00 - 15:30 10.1 10.5 10.0 88 0.0 8.3 205 15.8 160
15:30 - 16:00 11.0 11.4 10.5 71 0.0 6.8 246 15.1 124
16:00 - 16:30 10.7 11.2 10.3 66 0.0 7.9 245 18.0 37
16:30 - 17:00 9.8 10.2 9.4 65 0.0 7.2 247 16.6 4
17:00 - 17:30 9.3 9.6 9.1 65 0.0 6.8 251 16.9 0
17:30 - 18:00 9.1 9.3 8.8 64 0.0 8.3 273 18.4 0
18:00 - 18:30 8.8 9.0 8.6 65 0.0 7.9 261 19.1 0
18:30 - 19:00 8.8 9.0 8.5 63 0.0 7.6 313 15.8 0
19:00 - 19:30 8.7 9.2 8.4 62 0.0 7.6 298 23.8 0
19:30 - 20:00 8.5 8.6 8.2 63 0.0 5.4 272 14.8 0
20:00 - 20:30 7.8 8.1 7.2 66 0.0 4.7 193 10.8 0
20:30 - 21:00 7.3 7.8 6.8 70 0.0 3.6 200 10.4 0
21:00 - 21:30 6.0 7.1 4.9 76 0.0 2.5 108 6.1 0
21:30 - 22:00 5.1 5.7 4.8 81 0.0 2.5 133 8.6 0
22:00 - 22:30 6.6 6.9 5.9 77 0.0 7.6 162 15.5 0
22:30 - 23:00 6.9 7.0 6.8 81 0.0 7.6 170 15.1 0

Les dades en taronja només han passat un control de qualitat automàtic. Resta pendent la seva validació definitiva.